UKV1260 KMCO-KFLL
Flight info
| Callsign | UKV1260 |
|---|---|
| Flight time | 0h 38m |
| Altitude | 27000 |
| Route | DDANY3 JIPOD CUUDA3 |
| Aircraft | A20N/M-SDE3FGHIRWY/LB1 |
Departure
| Time | 2026-05-05 18:26 |
|---|---|
| Airport | Orlando International Airport (KMCO) |
Arrival
| Time | 2026-05-05 19:04 |
|---|---|
| Airport | Fort Lauderdale Hollywood International Airport (KFLL) |
| Time | Latitude | Longitude | Altitude | Speed | Heading |
|---|---|---|---|---|---|
| 2026-05-05 18:00 | 28.43593 | -81.30061 | 101 ft | 0 kts | 257° |
| 2026-05-05 18:16 | 28.43594 | -81.30054 | 101 ft | 2 kts | 255° |
| 2026-05-05 18:16 | 28.43598 | -81.30035 | 98 ft | 2 kts | 256° |
| 2026-05-05 18:16 | 28.43602 | -81.30017 | 100 ft | 2 kts | 255° |
| 2026-05-05 18:17 | 28.43607 | -81.29999 | 100 ft | 2 kts | 254° |
| 2026-05-05 18:17 | 28.43611 | -81.29981 | 99 ft | 2 kts | 252° |
| 2026-05-05 18:17 | 28.43616 | -81.29963 | 99 ft | 2 kts | 251° |
| 2026-05-05 18:17 | 28.43622 | -81.29946 | 99 ft | 2 kts | 248° |
| 2026-05-05 18:18 | 28.43628 | -81.29929 | 100 ft | 2 kts | 244° |
| 2026-05-05 18:18 | 28.43636 | -81.29912 | 99 ft | 2 kts | 236° |
| 2026-05-05 18:18 | 28.43647 | -81.29898 | 101 ft | 2 kts | 214° |
| 2026-05-05 18:18 | 28.43661 | -81.29891 | 99 ft | 2 kts | 180° |
| 2026-05-05 18:19 | 28.43667 | -81.29891 | 100 ft | 0 kts | 176° |
| 2026-05-05 18:19 | 28.43666 | -81.29891 | 99 ft | 0 kts | 176° |
| 2026-05-05 18:20 | 28.43642 | -81.29889 | 100 ft | 8 kts | 176° |
| 2026-05-05 18:20 | 28.43565 | -81.29872 | 102 ft | 13 kts | 135° |
| 2026-05-05 18:20 | 28.43507 | -81.29807 | 104 ft | 13 kts | 173° |
| 2026-05-05 18:20 | 28.43407 | -81.29803 | 103 ft | 16 kts | 179° |
| 2026-05-05 18:21 | 28.43286 | -81.29802 | 103 ft | 19 kts | 179° |
| 2026-05-05 18:21 | 28.43146 | -81.29798 | 103 ft | 21 kts | 180° |
| 2026-05-05 18:21 | 28.42990 | -81.29798 | 103 ft | 23 kts | 180° |
| 2026-05-05 18:21 | 28.42820 | -81.29798 | 102 ft | 26 kts | 180° |
| 2026-05-05 18:22 | 28.42638 | -81.29797 | 102 ft | 26 kts | 179° |
| 2026-05-05 18:22 | 28.42447 | -81.29792 | 102 ft | 28 kts | 179° |
| 2026-05-05 18:22 | 28.42249 | -81.29793 | 102 ft | 30 kts | 180° |
| 2026-05-05 18:22 | 28.42038 | -81.29791 | 102 ft | 31 kts | 179° |
| 2026-05-05 18:23 | 28.41820 | -81.29788 | 102 ft | 32 kts | 178° |
| 2026-05-05 18:23 | 28.41603 | -81.29784 | 102 ft | 26 kts | 181° |
| 2026-05-05 18:23 | 28.41421 | -81.29786 | 101 ft | 27 kts | 179° |
| 2026-05-05 18:23 | 28.41228 | -81.29781 | 100 ft | 29 kts | 180° |
| 2026-05-05 18:24 | 28.41047 | -81.29780 | 100 ft | 23 kts | 179° |
| 2026-05-05 18:24 | 28.40934 | -81.29739 | 101 ft | 17 kts | 101° |
| 2026-05-05 18:24 | 28.40931 | -81.29613 | 100 ft | 15 kts | 90° |
| 2026-05-05 18:24 | 28.40953 | -81.29568 | 98 ft | 6 kts | 20° |
| 2026-05-05 18:25 | 28.40999 | -81.29562 | 99 ft | 9 kts | 1° |
| 2026-05-05 18:25 | 28.41130 | -81.29564 | 100 ft | 53 kts | 359° |
| 2026-05-05 18:25 | 28.42028 | -81.29573 | 102 ft | 137 kts | 359° |
| 2026-05-05 18:25 | 28.43107 | -81.29571 | 421 ft | 166 kts | 1° |
| 2026-05-05 18:26 | 28.44286 | -81.29594 | 1190 ft | 166 kts | 4° |
| 2026-05-05 18:26 | 28.45361 | -81.29244 | 2123 ft | 163 kts | 32° |
| 2026-05-05 18:26 | 28.46196 | -81.28301 | 2751 ft | 179 kts | 55° |
| 2026-05-05 18:26 | 28.46953 | -81.27079 | 3282 ft | 198 kts | 55° |
| 2026-05-05 18:27 | 28.47795 | -81.25730 | 3765 ft | 221 kts | 55° |
| 2026-05-05 18:27 | 28.48737 | -81.24248 | 4350 ft | 246 kts | 54° |
| 2026-05-05 18:27 | 28.49761 | -81.22571 | 4838 ft | 268 kts | 60° |
| 2026-05-05 18:27 | 28.50505 | -81.20614 | 4975 ft | 271 kts | 74° |
| 2026-05-05 18:28 | 28.50971 | -81.16362 | 5111 ft | 275 kts | 95° |
| 2026-05-05 18:28 | 28.50591 | -81.14222 | 5686 ft | 278 kts | 106° |
| 2026-05-05 18:28 | 28.50084 | -81.12090 | 6788 ft | 281 kts | 105° |
| 2026-05-05 18:29 | 28.49594 | -81.09913 | 7750 ft | 288 kts | 105° |
| 2026-05-05 18:29 | 28.49097 | -81.07673 | 8682 ft | 296 kts | 105° |
| 2026-05-05 18:29 | 28.48395 | -81.05443 | 9591 ft | 302 kts | 121° |
| 2026-05-05 18:29 | 28.47087 | -81.03573 | 10440 ft | 307 kts | 141° |
| 2026-05-05 18:30 | 28.45368 | -81.01982 | 10848 ft | 331 kts | 144° |
| 2026-05-05 18:30 | 28.43487 | -81.00301 | 11250 ft | 354 kts | 144° |
| 2026-05-05 18:30 | 28.41524 | -80.98541 | 11961 ft | 364 kts | 144° |
| 2026-05-05 18:30 | 28.39547 | -80.96754 | 12740 ft | 370 kts | 144° |
| 2026-05-05 18:31 | 28.37520 | -80.94912 | 13497 ft | 378 kts | 143° |
| 2026-05-05 18:31 | 28.35452 | -80.93030 | 14228 ft | 384 kts | 143° |
| 2026-05-05 18:31 | 28.33350 | -80.91115 | 14954 ft | 389 kts | 143° |
| 2026-05-05 18:31 | 28.31222 | -80.89178 | 15650 ft | 394 kts | 143° |
| 2026-05-05 18:32 | 28.29157 | -80.87098 | 16345 ft | 401 kts | 134° |
| 2026-05-05 18:32 | 28.27474 | -80.84545 | 17011 ft | 407 kts | 120° |
| 2026-05-05 18:32 | 28.26284 | -80.81652 | 17682 ft | 412 kts | 111° |
| 2026-05-05 18:32 | 28.25200 | -80.78571 | 18366 ft | 417 kts | 111° |
| 2026-05-05 18:33 | 28.24123 | -80.75538 | 18931 ft | 423 kts | 111° |
| 2026-05-05 18:33 | 28.23005 | -80.72417 | 19462 ft | 429 kts | 111° |
| 2026-05-05 18:33 | 28.21871 | -80.69263 | 20007 ft | 435 kts | 111° |
| 2026-05-05 18:33 | 28.20721 | -80.66061 | 20544 ft | 440 kts | 111° |
| 2026-05-05 18:34 | 28.19618 | -80.62798 | 21080 ft | 446 kts | 110° |
| 2026-05-05 18:34 | 28.18538 | -80.59478 | 21591 ft | 452 kts | 109° |
| 2026-05-05 18:34 | 28.17445 | -80.56109 | 22107 ft | 457 kts | 109° |
| 2026-05-05 18:34 | 28.16335 | -80.52713 | 22624 ft | 462 kts | 110° |
| 2026-05-05 18:35 | 28.15219 | -80.49322 | 23121 ft | 468 kts | 110° |
| 2026-05-05 18:35 | 28.14072 | -80.45852 | 23621 ft | 473 kts | 110° |
| 2026-05-05 18:35 | 28.12909 | -80.42345 | 24069 ft | 477 kts | 110° |
| 2026-05-05 18:35 | 28.11737 | -80.38819 | 24559 ft | 479 kts | 110° |
| 2026-05-05 18:36 | 28.10290 | -80.35396 | 25003 ft | 483 kts | 122° |
| 2026-05-05 18:36 | 28.08224 | -80.32375 | 25430 ft | 485 kts | 136° |
| 2026-05-05 18:36 | 28.05649 | -80.29929 | 25849 ft | 483 kts | 150° |
| 2026-05-05 18:36 | 28.02724 | -80.28178 | 26262 ft | 480 kts | 163° |
| 2026-05-05 18:37 | 27.99536 | -80.27105 | 26678 ft | 477 kts | 172° |
| 2026-05-05 18:37 | 27.96285 | -80.26285 | 26981 ft | 480 kts | 172° |
| 2026-05-05 18:37 | 27.93036 | -80.25367 | 27088 ft | 483 kts | 169° |
| 2026-05-05 18:37 | 27.89806 | -80.24297 | 27081 ft | 484 kts | 167° |
| 2026-05-05 18:38 | 27.86597 | -80.23122 | 27076 ft | 485 kts | 166° |
| 2026-05-05 18:38 | 27.83400 | -80.21895 | 27084 ft | 485 kts | 166° |
| 2026-05-05 18:38 | 27.80210 | -80.20649 | 27092 ft | 485 kts | 165° |
| 2026-05-05 18:38 | 27.77023 | -80.19401 | 27078 ft | 485 kts | 165° |
| 2026-05-05 18:39 | 27.73828 | -80.18152 | 27079 ft | 485 kts | 166° |
| 2026-05-05 18:39 | 27.70636 | -80.16907 | 27079 ft | 485 kts | 166° |
| 2026-05-05 18:39 | 27.67434 | -80.15661 | 27080 ft | 485 kts | 166° |
| 2026-05-05 18:39 | 27.64246 | -80.14422 | 27083 ft | 485 kts | 166° |
| 2026-05-05 18:40 | 27.61097 | -80.13198 | 27082 ft | 485 kts | 165° |
| 2026-05-05 18:40 | 27.57916 | -80.11908 | 27082 ft | 485 kts | 164° |
| 2026-05-05 18:40 | 27.54706 | -80.10572 | 27081 ft | 486 kts | 164° |
| 2026-05-05 18:40 | 27.51573 | -80.09264 | 27078 ft | 486 kts | 164° |
| 2026-05-05 18:41 | 27.48404 | -80.07948 | 27079 ft | 485 kts | 164° |
| 2026-05-05 18:41 | 27.45229 | -80.06635 | 27080 ft | 486 kts | 164° |
| 2026-05-05 18:41 | 27.42063 | -80.05330 | 27078 ft | 486 kts | 164° |
| 2026-05-05 18:42 | 27.39189 | -80.04150 | 27072 ft | 485 kts | 165° |
| 2026-05-05 18:42 | 27.35968 | -80.03070 | 27073 ft | 482 kts | 170° |
| 2026-05-05 18:42 | 27.32732 | -80.02088 | 27070 ft | 482 kts | 169° |
| 2026-05-05 18:42 | 27.29492 | -80.01100 | 27074 ft | 482 kts | 169° |
| 2026-05-05 18:43 | 27.26252 | -80.00111 | 27072 ft | 482 kts | 169° |
| 2026-05-05 18:43 | 27.23035 | -79.99077 | 27032 ft | 478 kts | 167° |
| 2026-05-05 18:43 | 27.19900 | -79.97939 | 26902 ft | 469 kts | 166° |
| 2026-05-05 18:43 | 27.16862 | -79.96802 | 26517 ft | 463 kts | 166° |
| 2026-05-05 18:44 | 27.13773 | -79.95653 | 25970 ft | 459 kts | 167° |
| 2026-05-05 18:44 | 27.10746 | -79.94543 | 25452 ft | 455 kts | 167° |
| 2026-05-05 18:44 | 27.07788 | -79.93469 | 24951 ft | 451 kts | 167° |
| 2026-05-05 18:44 | 27.04816 | -79.92369 | 24449 ft | 448 kts | 166° |
| 2026-05-05 18:45 | 27.01904 | -79.91194 | 24174 ft | 441 kts | 165° |
| 2026-05-05 18:45 | 26.99014 | -79.90002 | 24086 ft | 444 kts | 165° |
| 2026-05-05 18:45 | 26.96107 | -79.88809 | 24065 ft | 446 kts | 165° |
| 2026-05-05 18:45 | 26.93196 | -79.87623 | 24007 ft | 443 kts | 165° |
| 2026-05-05 18:46 | 26.90314 | -79.86454 | 23707 ft | 441 kts | 165° |
| 2026-05-05 18:46 | 26.87438 | -79.85293 | 23238 ft | 437 kts | 165° |
| 2026-05-05 18:46 | 26.84603 | -79.84151 | 22523 ft | 430 kts | 165° |
| 2026-05-05 18:46 | 26.81799 | -79.83023 | 21805 ft | 422 kts | 165° |
| 2026-05-05 18:47 | 26.79087 | -79.81929 | 21351 ft | 409 kts | 165° |
| 2026-05-05 18:47 | 26.76432 | -79.80862 | 20681 ft | 402 kts | 165° |
| 2026-05-05 18:47 | 26.73849 | -79.79826 | 20011 ft | 397 kts | 165° |
| 2026-05-05 18:47 | 26.71265 | -79.79012 | 19344 ft | 385 kts | 178° |
| 2026-05-05 18:48 | 26.68639 | -79.79028 | 18651 ft | 371 kts | 195° |
| 2026-05-05 18:48 | 26.66206 | -79.79821 | 17898 ft | 360 kts | 206° |
| 2026-05-05 18:48 | 26.63871 | -79.80793 | 17199 ft | 355 kts | 205° |
| 2026-05-05 18:48 | 26.61569 | -79.81740 | 16509 ft | 350 kts | 205° |
| 2026-05-05 18:49 | 26.59295 | -79.82670 | 15864 ft | 345 kts | 205° |
| 2026-05-05 18:49 | 26.57051 | -79.83585 | 15205 ft | 341 kts | 205° |
| 2026-05-05 18:49 | 26.54864 | -79.84475 | 14809 ft | 328 kts | 205° |
| 2026-05-05 18:49 | 26.52767 | -79.85409 | 14282 ft | 320 kts | 207° |
| 2026-05-05 18:50 | 26.50730 | -79.86388 | 13669 ft | 317 kts | 208° |
| 2026-05-05 18:50 | 26.48715 | -79.87366 | 12999 ft | 313 kts | 207° |
| 2026-05-05 18:50 | 26.46725 | -79.88324 | 12344 ft | 311 kts | 207° |
| 2026-05-05 18:50 | 26.44744 | -79.89266 | 11727 ft | 307 kts | 206° |
| 2026-05-05 18:51 | 26.42810 | -79.90179 | 11109 ft | 305 kts | 206° |
| 2026-05-05 18:51 | 26.40864 | -79.91094 | 10519 ft | 301 kts | 206° |
| 2026-05-05 18:51 | 26.38938 | -79.91998 | 9931 ft | 298 kts | 206° |
| 2026-05-05 18:51 | 26.37137 | -79.93039 | 9508 ft | 285 kts | 213° |
| 2026-05-05 18:52 | 26.35432 | -79.94147 | 8935 ft | 282 kts | 212° |
| 2026-05-05 18:52 | 26.34308 | -79.94872 | 8529 ft | 281 kts | 212° |
| 2026-05-05 18:52 | 26.32615 | -79.95959 | 7926 ft | 279 kts | 212° |
| 2026-05-05 18:52 | 26.30932 | -79.97040 | 7361 ft | 277 kts | 212° |
| 2026-05-05 18:53 | 26.29261 | -79.98110 | 6767 ft | 276 kts | 212° |
| 2026-05-05 18:53 | 26.27600 | -79.99176 | 6207 ft | 276 kts | 212° |
| 2026-05-05 18:53 | 26.25940 | -80.00242 | 5661 ft | 275 kts | 211° |
| 2026-05-05 18:53 | 26.24309 | -80.01289 | 5295 ft | 272 kts | 211° |
| 2026-05-05 18:54 | 26.22684 | -80.02333 | 5077 ft | 268 kts | 211° |
| 2026-05-05 18:54 | 26.21044 | -80.03387 | 5011 ft | 273 kts | 211° |
| 2026-05-05 18:54 | 26.19410 | -80.04441 | 5003 ft | 270 kts | 214° |
| 2026-05-05 18:54 | 26.18050 | -80.05865 | 5008 ft | 270 kts | 237° |
| 2026-05-05 18:55 | 26.17279 | -80.07750 | 5005 ft | 267 kts | 253° |
| 2026-05-05 18:55 | 26.16702 | -80.09730 | 4986 ft | 269 kts | 252° |
| 2026-05-05 18:55 | 26.16116 | -80.11711 | 4987 ft | 270 kts | 252° |
| 2026-05-05 18:55 | 26.15524 | -80.13684 | 4988 ft | 268 kts | 253° |
| 2026-05-05 18:56 | 26.15099 | -80.15703 | 4985 ft | 267 kts | 263° |
| 2026-05-05 18:56 | 26.15020 | -80.17762 | 4987 ft | 267 kts | 271° |
| 2026-05-05 18:56 | 26.15053 | -80.19833 | 4984 ft | 269 kts | 271° |
| 2026-05-05 18:56 | 26.15067 | -80.21892 | 4988 ft | 269 kts | 271° |
| 2026-05-05 18:57 | 26.15074 | -80.23970 | 4984 ft | 268 kts | 270° |
| 2026-05-05 18:57 | 26.15079 | -80.26045 | 4989 ft | 268 kts | 270° |
| 2026-05-05 18:57 | 26.15085 | -80.28122 | 4985 ft | 269 kts | 270° |
| 2026-05-05 18:57 | 26.15091 | -80.30202 | 4971 ft | 268 kts | 271° |
| 2026-05-05 18:58 | 26.15097 | -80.32268 | 4845 ft | 264 kts | 271° |
| 2026-05-05 18:58 | 26.15034 | -80.34263 | 4752 ft | 254 kts | 259° |
| 2026-05-05 18:58 | 26.14320 | -80.36011 | 4514 ft | 248 kts | 231° |
| 2026-05-05 18:58 | 26.12965 | -80.37152 | 4229 ft | 244 kts | 202° |
| 2026-05-05 18:59 | 26.11318 | -80.37457 | 3906 ft | 241 kts | 175° |
| 2026-05-05 18:59 | 26.09727 | -80.36898 | 3477 ft | 243 kts | 147° |
| 2026-05-05 18:59 | 26.08550 | -80.35579 | 3117 ft | 240 kts | 118° |
| 2026-05-05 18:59 | 26.07971 | -80.33895 | 2961 ft | 228 kts | 101° |
| 2026-05-05 19:00 | 26.07792 | -80.32167 | 2709 ft | 223 kts | 91° |
| 2026-05-05 19:00 | 26.07787 | -80.30501 | 2424 ft | 209 kts | 89° |
| 2026-05-05 19:00 | 26.07774 | -80.28960 | 2158 ft | 186 kts | 90° |
| 2026-05-05 19:00 | 26.07767 | -80.27604 | 1921 ft | 164 kts | 89° |
| 2026-05-05 19:01 | 26.07760 | -80.26438 | 1700 ft | 142 kts | 90° |
| 2026-05-05 19:01 | 26.07753 | -80.25399 | 1531 ft | 128 kts | 89° |
| 2026-05-05 19:01 | 26.07747 | -80.24447 | 1379 ft | 118 kts | 88° |
| 2026-05-05 19:01 | 26.07742 | -80.23543 | 1221 ft | 121 kts | 88° |
| 2026-05-05 19:02 | 26.07738 | -80.22601 | 1071 ft | 121 kts | 88° |
| 2026-05-05 19:02 | 26.07728 | -80.21685 | 923 ft | 116 kts | 89° |
| 2026-05-05 19:02 | 26.07724 | -80.20796 | 781 ft | 114 kts | 87° |
| 2026-05-05 19:02 | 26.07722 | -80.19862 | 636 ft | 128 kts | 88° |
| 2026-05-05 19:03 | 26.07710 | -80.18878 | 418 ft | 126 kts | 90° |
| 2026-05-05 19:03 | 26.07703 | -80.17909 | 270 ft | 124 kts | 89° |
| 2026-05-05 19:03 | 26.07696 | -80.16945 | 150 ft | 127 kts | 88° |
| 2026-05-05 19:03 | 26.07692 | -80.16001 | 27 ft | 115 kts | 89° |
| 2026-05-05 19:04 | 26.07692 | -80.15263 | 11 ft | 70 kts | 90° |
| 2026-05-05 19:04 | 26.07686 | -80.14946 | 15 ft | 13 kts | 90° |
| 2026-05-05 19:04 | 26.07686 | -80.14924 | 15 ft | 16 kts | 90° |
| 2026-05-05 19:04 | 26.07670 | -80.14731 | 18 ft | 28 kts | 101° |
| 2026-05-05 19:05 | 26.07610 | -80.14554 | 20 ft | 20 kts | 119° |
| 2026-05-05 19:05 | 26.07506 | -80.14502 | 19 ft | 20 kts | 166° |
| 2026-05-05 19:05 | 26.07487 | -80.14431 | 18 ft | 11 kts | 69° |
| 2026-05-05 19:05 | 26.07451 | -80.14342 | 17 ft | 15 kts | 182° |
| 2026-05-05 19:06 | 26.07391 | -80.14343 | 18 ft | 0 kts | 178° |
| 2026-05-05 19:18 | 26.07397 | -80.14343 | 17 ft | 2 kts | 177° |
| 2026-05-05 19:18 | 26.07401 | -80.14343 | 17 ft | 0 kts | 179° |
| 2026-05-05 19:20 | 26.07402 | -80.14343 | 17 ft | 1 kts | 179° |
| 2026-05-05 19:20 | 26.07411 | -80.14343 | 19 ft | 3 kts | 179° |
| 2026-05-05 19:20 | 26.07431 | -80.14344 | 19 ft | 3 kts | 179° |
| 2026-05-05 19:20 | 26.07450 | -80.14344 | 19 ft | 3 kts | 179° |
| 2026-05-05 19:21 | 26.07470 | -80.14343 | 19 ft | 3 kts | 198° |
| 2026-05-05 19:21 | 26.07486 | -80.14331 | 17 ft | 3 kts | 241° |
| 2026-05-05 19:21 | 26.07489 | -80.14324 | 17 ft | 1 kts | 259° |